Time;durP1;ratioP1;P1;durP2;ratioP2;P2;SDS_P1;SDS_P2;PMS_P1;PMS_P2;Temp;Humidity;BMP_temperature;BMP_pressure;BME280_temperature;BME280_humidity;BME280_pressure;Samples;Min_cycle;Max_cycle;Signal;HPM_P1;HPM_P2
2023/06/04 00:00:32;;;;;;;;;;;14.90;96.50;;;;;;5045794;28;19984;-68
2023/06/04 00:02:59;;;;;;;;;;;14.80;96.30;;;;;;5044238;28;19983;-68
2023/06/04 00:05:26;;;;;;;;;;;14.70;96.70;;;;;;5025391;28;19963;-67
2023/06/04 00:07:52;;;;;;;;;;;14.60;97.20;;;;;;5026003;28;19921;-68
2023/06/04 00:10:19;;;;;;;;;;;14.60;97.60;;;;;;5025787;28;19985;-68
2023/06/04 00:12:46;;;;;;;;;;;14.60;97.70;;;;;;5025991;28;19921;-67
2023/06/04 00:15:13;;;;;;;;;;;14.50;97.70;;;;;;5025354;28;20164;-68
2023/06/04 00:17:41;;;;;;;;;;;14.40;97.60;;;;;;5023894;28;19921;-67
2023/06/04 00:20:08;;;;;;;;;;;14.40;97.60;;;;;;5025595;28;20224;-68
2023/06/04 00:22:34;;;;;;;;;;;14.30;97.70;;;;;;5026058;28;19921;-67
2023/06/04 00:25:01;;;;;;;;;;;14.30;97.80;;;;;;5024952;28;19985;-68
2023/06/04 00:27:28;;;;;;;;;;;14.20;97.90;;;;;;5025375;28;19977;-67
2023/06/04 00:29:54;;;;;;;;;;;14.20;97.90;;;;;;5025389;28;19993;-67
2023/06/04 00:32:21;;;;;;;;;;;14.10;98.10;;;;;;5025408;28;20148;-68
2023/06/04 00:34:52;;;;;;;;;;;14.10;98.00;;;;;;5024574;28;19957;-67
2023/06/04 00:37:19;;;;;;;;;;;14.00;98.10;;;;;;5025667;28;19984;-67
2023/06/04 00:39:46;;;;;;;;;;;14.00;98.50;;;;;;5025376;28;19944;-68
2023/06/04 00:42:12;;;;;;;;;;;14.00;98.80;;;;;;5025170;28;19957;-67
2023/06/04 00:44:44;;;;;;;;;;;14.00;98.90;;;;;;5024708;28;19989;-67
2023/06/04 00:47:11;;;;;;;;;;;13.90;99.00;;;;;;5025229;28;19921;-67
2023/06/04 00:49:38;;;;;;;;;;;13.90;99.30;;;;;;5033025;28;19929;-67
2023/06/04 00:52:06;;;;;;;;;;;13.80;99.60;;;;;;5045070;28;19921;-67
2023/06/04 00:54:33;;;;;;;;;;;13.80;99.80;;;;;;5044141;28;19921;-68
2023/06/04 00:57:00;;;;;;;;;;;13.80;99.90;;;;;;5044769;28;19983;-68
2023/06/04 00:59:27;;;;;;;;;;;13.70;99.90;;;;;;5045071;28;20014;-68
2023/06/04 01:01:56;;;;;;;;;;;13.70;99.90;;;;;;5036864;28;20004;-67
2023/06/04 01:04:26;;;;;;;;;;;13.70;99.90;;;;;;5035648;28;19929;-67
2023/06/04 01:06:54;;;;;;;;;;;13.70;99.90;;;;;;5044072;28;19989;-67
2023/06/04 01:09:22;;;;;;;;;;;13.60;99.90;;;;;;5044860;28;20010;-68
2023/06/04 01:11:48;;;;;;;;;;;13.60;99.90;;;;;;5044426;28;19942;-67
2023/06/04 01:14:18;;;;;;;;;;;13.50;99.90;;;;;;5043913;28;19980;-67
2023/06/04 01:16:47;;;;;;;;;;;13.50;99.90;;;;;;5041735;28;20110;-68
2023/06/04 01:19:24;;;;;;;;;;;13.50;99.90;;;;;;5044536;28;20205;-67
2023/06/04 01:21:53;;;;;;;;;;;13.40;99.90;;;;;;5044246;28;19952;-67
2023/06/04 01:24:23;;;;;;;;;;;13.30;99.90;;;;;;5043782;28;20172;-68
2023/06/04 01:26:51;;;;;;;;;;;13.20;99.90;;;;;;5043457;28;20094;-68
2023/06/04 01:29:18;;;;;;;;;;;13.20;99.90;;;;;;5044165;28;19921;-67
2023/06/04 01:31:45;;;;;;;;;;;13.10;99.90;;;;;;5044390;28;20255;-67
2023/06/04 01:34:12;;;;;;;;;;;13.10;99.90;;;;;;5043591;28;19956;-68
2023/06/04 01:36:38;;;;;;;;;;;13.10;99.90;;;;;;5043892;28;19960;-67
2023/06/04 01:39:05;;;;;;;;;;;13.00;99.90;;;;;;5044179;28;19928;-68
2023/06/04 01:41:33;;;;;;;;;;;13.00;99.90;;;;;;5044330;28;19976;-67
2023/06/04 01:43:59;;;;;;;;;;;12.90;99.90;;;;;;5043375;28;20113;-67
2023/06/04 01:46:26;;;;;;;;;;;12.90;99.90;;;;;;5056138;22;19960;-71
2023/06/04 01:48:56;;;;;;;;;;;12.80;99.90;;;;;;5040222;28;19963;-72
2023/06/04 01:51:22;;;;;;;;;;;12.80;99.90;;;;;;5042766;28;20000;-70
2023/06/04 01:53:49;;;;;;;;;;;12.70;99.90;;;;;;5043439;28;19988;-71
2023/06/04 01:56:15;;;;;;;;;;;12.60;99.90;;;;;;5043604;28;19928;-71
2023/06/04 01:58:44;;;;;;;;;;;12.60;99.90;;;;;;5043451;28;19984;-71
2023/06/04 02:01:10;;;;;;;;;;;12.60;99.90;;;;;;5043627;28;19921;-71
2023/06/04 02:03:38;;;;;;;;;;;12.50;99.90;;;;;;5037540;28;19984;-71
2023/06/04 02:06:07;;;;;;;;;;;12.50;99.90;;;;;;5042631;28;20216;-71
2023/06/04 02:08:33;;;;;;;;;;;12.40;99.90;;;;;;5043568;28;19921;-71
2023/06/04 02:11:00;;;;;;;;;;;12.40;99.90;;;;;;5043707;28;20161;-69
2023/06/04 02:13:28;;;;;;;;;;;12.30;99.90;;;;;;5040922;28;19921;-70
2023/06/04 02:15:56;;;;;;;;;;;12.20;99.90;;;;;;5042747;28;19921;-69
2023/06/04 02:18:22;;;;;;;;;;;12.20;99.90;;;;;;5042947;28;20004;-69
2023/06/04 02:20:50;;;;;;;;;;;12.10;99.90;;;;;;5043534;28;19951;-70
2023/06/04 02:23:18;;;;;;;;;;;12.10;99.90;;;;;;5043378;28;20120;-70
2023/06/04 02:25:45;;;;;;;;;;;12.10;99.90;;;;;;5042566;28;19929;-70
2023/06/04 02:28:12;;;;;;;;;;;12.00;99.90;;;;;;5043182;28;20412;-70
2023/06/04 02:30:38;;;;;;;;;;;11.90;99.90;;;;;;5043532;28;19929;-70
2023/06/04 02:33:09;;;;;;;;;;;11.90;99.90;;;;;;5042800;28;19921;-69
2023/06/04 02:35:36;;;;;;;;;;;11.90;99.90;;;;;;5042983;28;19921;-69
2023/06/04 02:38:02;;;;;;;;;;;11.80;99.90;;;;;;5043511;28;19921;-69
2023/06/04 02:40:29;;;;;;;;;;;11.80;99.90;;;;;;5043660;28;19984;-71
2023/06/04 02:42:56;;;;;;;;;;;11.70;99.90;;;;;;5043357;28;19921;-70
2023/06/04 02:45:23;;;;;;;;;;;11.70;99.90;;;;;;5042825;28;19928;-70
2023/06/04 02:47:50;;;;;;;;;;;11.70;99.90;;;;;;5043266;28;19927;-69
2023/06/04 02:50:18;;;;;;;;;;;11.70;99.90;;;;;;5043435;28;20161;-70
2023/06/04 02:52:44;;;;;;;;;;;11.60;99.90;;;;;;5043340;28;19921;-70
2023/06/04 02:55:12;;;;;;;;;;;11.60;99.90;;;;;;5042509;28;20263;-70
2023/06/04 02:57:40;;;;;;;;;;;11.60;99.90;;;;;;5043141;28;19921;-70
2023/06/04 03:00:11;;;;;;;;;;;11.60;99.90;;;;;;5043419;28;20116;-68
2023/06/04 03:02:39;;;;;;;;;;;11.60;99.90;;;;;;5043108;28;19988;-70
2023/06/04 03:05:06;;;;;;;;;;;11.60;99.90;;;;;;5042662;28;19988;-69
2023/06/04 03:07:34;;;;;;;;;;;11.50;99.90;;;;;;5042854;28;19925;-71
2023/06/04 03:10:00;;;;;;;;;;;11.40;99.90;;;;;;5043269;28;19935;-70
2023/06/04 03:12:27;;;;;;;;;;;11.40;99.90;;;;;;5041032;28;19984;-70
2023/06/04 03:14:54;;;;;;;;;;;11.30;99.90;;;;;;5042601;28;19921;-70
2023/06/04 03:17:20;;;;;;;;;;;11.20;99.90;;;;;;5042714;28;19963;-70
2023/06/04 03:19:47;;;;;;;;;;;11.20;99.90;;;;;;5043084;28;20284;-71
2023/06/04 03:22:14;;;;;;;;;;;11.20;99.90;;;;;;5043402;28;19921;-70
2023/06/04 03:24:42;;;;;;;;;;;11.10;99.90;;;;;;5042549;28;19925;-70
2023/06/04 03:27:10;;;;;;;;;;;11.00;99.90;;;;;;5042890;28;19922;-70
2023/06/04 03:29:37;;;;;;;;;;;11.00;99.90;;;;;;5043669;28;19928;-70
2023/06/04 03:32:04;;;;;;;;;;;11.00;99.90;;;;;;5046472;28;19988;-70
2023/06/04 03:34:31;;;;;;;;;;;11.00;99.90;;;;;;5046408;28;19921;-70
2023/06/04 03:36:59;;;;;;;;;;;11.00;99.90;;;;;;5046309;28;19921;-70
2023/06/04 03:39:26;;;;;;;;;;;11.00;99.90;;;;;;5046421;28;19921;-69
2023/06/04 03:41:54;;;;;;;;;;;11.00;99.90;;;;;;5046339;28;19921;-70
2023/06/04 03:44:21;;;;;;;;;;;10.90;99.90;;;;;;5045988;28;20641;-70
2023/06/04 03:46:47;;;;;;;;;;;10.90;99.90;;;;;;5046134;28;20176;-70
2023/06/04 03:49:16;;;;;;;;;;;10.90;99.90;;;;;;5046111;28;19981;-70
2023/06/04 03:51:43;;;;;;;;;;;10.80;99.90;;;;;;5046262;28;19960;-70
2023/06/04 03:54:10;;;;;;;;;;;10.80;99.90;;;;;;5045991;28;20000;-71
2023/06/04 03:56:36;;;;;;;;;;;10.80;99.90;;;;;;5046224;28;19928;-70
2023/06/04 03:59:04;;;;;;;;;;;10.80;99.90;;;;;;5046362;28;20323;-69
2023/06/04 04:01:31;;;;;;;;;;;10.80;99.90;;;;;;5046315;28;19921;-70
2023/06/04 04:03:58;;;;;;;;;;;10.80;99.90;;;;;;5045789;28;19956;-70
2023/06/04 04:06:24;;;;;;;;;;;10.80;99.90;;;;;;5045752;28;19980;-70
2023/06/04 04:08:51;;;;;;;;;;;10.80;99.90;;;;;;5045804;28;19996;-70
2023/06/04 04:11:18;;;;;;;;;;;10.70;99.90;;;;;;5045977;28;20022;-70
2023/06/04 04:13:45;;;;;;;;;;;10.70;99.90;;;;;;5043937;28;20208;-70
2023/06/04 04:16:13;;;;;;;;;;;10.70;99.90;;;;;;5045369;28;19933;-70
2023/06/04 04:18:42;;;;;;;;;;;10.70;99.90;;;;;;5045857;28;19988;-70
2023/06/04 04:21:08;;;;;;;;;;;10.80;99.90;;;;;;5045752;28;19997;-69
2023/06/04 04:23:35;;;;;;;;;;;10.80;99.90;;;;;;5045949;28;19953;-70
2023/06/04 04:26:02;;;;;;;;;;;10.90;99.90;;;;;;5045187;28;19987;-70
2023/06/04 04:28:30;;;;;;;;;;;10.90;99.90;;;;;;5045782;28;20108;-70
2023/06/04 04:30:57;;;;;;;;;;;11.00;99.90;;;;;;5045296;28;20275;-69
2023/06/04 04:33:25;;;;;;;;;;;11.00;99.90;;;;;;5045702;28;19924;-70
2023/06/04 04:35:52;;;;;;;;;;;11.10;99.90;;;;;;5045046;28;19921;-70
2023/06/04 04:38:19;;;;;;;;;;;11.20;99.90;;;;;;5045660;28;19925;-70
2023/06/04 04:40:47;;;;;;;;;;;11.20;99.90;;;;;;5044607;28;20208;-70
2023/06/04 04:43:14;;;;;;;;;;;11.30;99.90;;;;;;5044759;28;20115;-70
2023/06/04 04:45:40;;;;;;;;;;;11.30;99.90;;;;;;5044555;28;19981;-70
2023/06/04 04:48:07;;;;;;;;;;;11.40;99.90;;;;;;5045228;28;19921;-71
2023/06/04 04:50:35;;;;;;;;;;;11.50;99.90;;;;;;5045033;28;19980;-70
2023/06/04 04:53:02;;;;;;;;;;;11.60;99.90;;;;;;5045240;28;20093;-70
2023/06/04 04:55:28;;;;;;;;;;;11.70;99.90;;;;;;5044330;28;19976;-70
2023/06/04 04:57:55;;;;;;;;;;;11.80;99.90;;;;;;5045323;28;19927;-70
2023/06/04 05:00:21;;;;;;;;;;;11.90;99.90;;;;;;5044741;28;19960;-69
2023/06/04 05:02:48;;;;;;;;;;;11.90;99.90;;;;;;5041476;28;19980;-69
2023/06/04 05:05:15;;;;;;;;;;;12.00;99.90;;;;;;5044331;28;19984;-70
2023/06/04 05:07:43;;;;;;;;;;;12.10;99.90;;;;;;5045116;28;19927;-70
2023/06/04 05:10:10;;;;;;;;;;;12.20;99.90;;;;;;5044930;28;20215;-70
2023/06/04 05:12:36;;;;;;;;;;;12.30;99.90;;;;;;5042558;28;19925;-70
2023/06/04 05:15:03;;;;;;;;;;;12.30;99.90;;;;;;5044285;28;19964;-70
2023/06/04 05:17:30;;;;;;;;;;;12.40;99.90;;;;;;5044441;28;19921;-69
2023/06/04 05:20:05;;;;;;;;;;;12.50;99.90;;;;;;5044402;28;20227;-69
2023/06/04 05:22:32;;;;;;;;;;;12.60;99.90;;;;;;5044713;28;19922;-71
2023/06/04 05:25:00;;;;;;;;;;;12.70;99.90;;;;;;5044079;28;19925;-70
2023/06/04 05:27:27;;;;;;;;;;;12.80;99.90;;;;;;5044278;28;20009;-69
2023/06/04 05:29:54;;;;;;;;;;;13.00;99.90;;;;;;5044446;28;19921;-69
2023/06/04 05:32:22;;;;;;;;;;;13.10;99.90;;;;;;5044305;28;19928;-70
2023/06/04 05:34:49;;;;;;;;;;;13.30;99.90;;;;;;5043835;28;19928;-70
2023/06/04 05:37:16;;;;;;;;;;;13.40;99.90;;;;;;5044284;28;19921;-69
2023/06/04 05:39:43;;;;;;;;;;;13.50;99.90;;;;;;5044127;28;19984;-70
2023/06/04 05:42:11;;;;;;;;;;;13.70;99.90;;;;;;5044453;28;19921;-70
2023/06/04 05:44:38;;;;;;;;;;;13.70;99.90;;;;;;5043855;28;19928;-69
2023/06/04 05:47:05;;;;;;;;;;;13.90;99.90;;;;;;5043683;28;20157;-70
2023/06/04 05:49:31;;;;;;;;;;;14.00;99.90;;;;;;5043956;28;20226;-70
2023/06/04 05:51:58;;;;;;;;;;;14.10;99.90;;;;;;5044173;28;19984;-71
2023/06/04 05:54:24;;;;;;;;;;;14.10;99.90;;;;;;5043289;28;19937;-70
2023/06/04 05:56:51;;;;;;;;;;;14.30;99.90;;;;;;5043537;28;20279;-71
2023/06/04 05:59:19;;;;;;;;;;;14.30;99.90;;;;;;5043987;28;19957;-69
2023/06/04 06:01:47;;;;;;;;;;;14.40;99.90;;;;;;5047510;28;20116;-68
2023/06/04 06:04:14;;;;;;;;;;;14.50;99.90;;;;;;5063113;28;19956;-68
2023/06/04 06:06:43;;;;;;;;;;;14.50;99.90;;;;;;5063414;28;20162;-69
2023/06/04 06:09:10;;;;;;;;;;;14.50;99.90;;;;;;5062325;28;20180;-68
2023/06/04 06:11:36;;;;;;;;;;;14.50;99.90;;;;;;5040463;28;19992;-69
2023/06/04 06:14:03;;;;;;;;;;;14.60;99.90;;;;;;5042599;28;19928;-69
2023/06/04 06:16:32;;;;;;;;;;;14.70;99.90;;;;;;5043066;28;19988;-69
2023/06/04 06:18:58;;;;;;;;;;;14.70;99.90;;;;;;5043007;28;19925;-69
2023/06/04 06:21:25;;;;;;;;;;;14.70;99.90;;;;;;5043134;28;19921;-69
2023/06/04 06:23:52;;;;;;;;;;;14.80;99.90;;;;;;5043353;28;19984;-69
2023/06/04 06:26:18;;;;;;;;;;;14.80;99.90;;;;;;5042467;28;19991;-69
2023/06/04 06:28:45;;;;;;;;;;;14.90;99.90;;;;;;5043326;28;19928;-69
2023/06/04 06:31:12;;;;;;;;;;;14.90;99.90;;;;;;5043195;28;19921;-69
2023/06/04 06:33:41;;;;;;;;;;;15.00;99.90;;;;;;5043308;28;19921;-68
2023/06/04 06:36:08;;;;;;;;;;;15.10;99.90;;;;;;5042009;28;19921;-70
2023/06/04 06:38:34;;;;;;;;;;;15.10;99.90;;;;;;5042990;28;20271;-69
2023/06/04 06:41:01;;;;;;;;;;;15.20;99.90;;;;;;5042928;28;19921;-69
2023/06/04 06:43:34;;;;;;;;;;;15.20;99.90;;;;;;5043308;28;19988;-69
2023/06/04 06:46:00;;;;;;;;;;;15.30;99.90;;;;;;5040639;28;19921;-70
2023/06/04 06:48:27;;;;;;;;;;;15.30;99.90;;;;;;5043135;28;19988;-69
2023/06/04 06:50:55;;;;;;;;;;;15.40;99.90;;;;;;5042436;28;20287;-69
2023/06/04 06:53:22;;;;;;;;;;;15.50;99.90;;;;;;5043386;28;19992;-69
2023/06/04 06:55:48;;;;;;;;;;;15.50;99.90;;;;;;5042361;28;20000;-69
2023/06/04 06:58:16;;;;;;;;;;;15.50;99.90;;;;;;5042935;28;19968;-69
2023/06/04 07:00:42;;;;;;;;;;;15.60;99.90;;;;;;5043167;28;19933;-69
2023/06/04 07:03:09;;;;;;;;;;;15.60;99.90;;;;;;5045920;28;19922;-70
2023/06/04 07:05:35;;;;;;;;;;;15.70;99.90;;;;;;5044844;28;20001;-70
2023/06/04 07:08:03;;;;;;;;;;;15.80;99.90;;;;;;5047212;28;19921;-69
2023/06/04 07:10:30;;;;;;;;;;;15.80;99.90;;;;;;5047130;28;19928;-70
2023/06/04 07:13:01;;;;;;;;;;;15.90;99.90;;;;;;5044631;28;19984;-71
2023/06/04 07:15:27;;;;;;;;;;;15.90;99.90;;;;;;5046207;28;19984;-70
2023/06/04 07:17:54;;;;;;;;;;;15.90;99.90;;;;;;5047121;28;20015;-69
2023/06/04 07:20:21;;;;;;;;;;;16.00;99.90;;;;;;5047074;28;19980;-70
2023/06/04 07:22:47;;;;;;;;;;;16.10;99.90;;;;;;5046996;28;19980;-70
2023/06/04 07:25:15;;;;;;;;;;;16.10;99.90;;;;;;5046300;28;19927;-70
2023/06/04 07:27:42;;;;;;;;;;;16.20;99.90;;;;;;5047003;28;19920;-71
2023/06/04 07:30:10;;;;;;;;;;;16.30;99.90;;;;;;5046995;28;19995;-71
2023/06/04 07:32:36;;;;;;;;;;;16.40;99.90;;;;;;5046664;28;19928;-70
2023/06/04 07:35:03;;;;;;;;;;;16.50;99.90;;;;;;5046218;28;19928;-71
2023/06/04 07:37:30;;;;;;;;;;;16.50;99.90;;;;;;5046695;28;19944;-70
2023/06/04 07:39:56;;;;;;;;;;;16.60;99.90;;;;;;5046582;28;20063;-71
2023/06/04 07:42:24;;;;;;;;;;;16.70;99.90;;;;;;5046681;28;19984;-71
2023/06/04 07:44:51;;;;;;;;;;;16.70;99.90;;;;;;5045861;28;19963;-70
2023/06/04 07:47:18;;;;;;;;;;;16.80;99.90;;;;;;5045842;28;20165;-70
2023/06/04 07:49:44;;;;;;;;;;;16.90;99.90;;;;;;5046294;28;19964;-70
2023/06/04 07:52:11;;;;;;;;;;;17.00;99.90;;;;;;5046420;28;19984;-71
2023/06/04 07:54:41;;;;;;;;;;;17.10;99.90;;;;;;5045696;28;19978;-70
2023/06/04 07:57:08;;;;;;;;;;;17.20;99.90;;;;;;5046287;28;19921;-70
2023/06/04 07:59:36;;;;;;;;;;;17.30;99.90;;;;;;5045926;28;19980;-70
2023/06/04 08:02:03;;;;;;;;;;;17.40;99.90;;;;;;5045531;28;19985;-71
2023/06/04 08:04:29;;;;;;;;;;;17.50;99.90;;;;;;5045236;28;19959;-71
2023/06/04 08:06:56;;;;;;;;;;;17.50;99.90;;;;;;5045883;28;19989;-69
2023/06/04 08:09:23;;;;;;;;;;;17.60;99.90;;;;;;5046040;28;19988;-71
2023/06/04 08:11:53;;;;;;;;;;;17.70;99.90;;;;;;5043313;28;19921;-71
2023/06/04 08:14:22;;;;;;;;;;;17.80;99.90;;;;;;5044935;28;19991;-71
2023/06/04 08:16:50;;;;;;;;;;;17.90;99.90;;;;;;5044241;28;19921;-70
2023/06/04 08:19:16;;;;;;;;;;;18.00;99.90;;;;;;5037692;28;19929;-71
2023/06/04 08:21:44;;;;;;;;;;;18.10;99.90;;;;;;5045783;28;19967;-71
2023/06/04 08:24:11;;;;;;;;;;;18.10;99.90;;;;;;5045046;28;19952;-71
2023/06/04 08:26:38;;;;;;;;;;;18.20;99.90;;;;;;5045414;28;19999;-70
2023/06/04 08:29:04;;;;;;;;;;;18.30;99.90;;;;;;5045559;28;19959;-71
2023/06/04 08:31:31;;;;;;;;;;;18.40;99.90;;;;;;5042296;28;19921;-71
2023/06/04 08:33:59;;;;;;;;;;;18.50;99.90;;;;;;5045136;28;19981;-71
2023/06/04 08:36:26;;;;;;;;;;;18.50;99.90;;;;;;5045730;28;19984;-70
2023/06/04 08:38:53;;;;;;;;;;;18.70;99.90;;;;;;5044032;28;20128;-70
2023/06/04 08:41:22;;;;;;;;;;;18.70;99.90;;;;;;5045688;28;19957;-71
2023/06/04 08:43:50;;;;;;;;;;;18.70;99.90;;;;;;5045436;28;19984;-72
2023/06/04 08:46:18;;;;;;;;;;;18.80;99.90;;;;;;5044745;28;19959;-70
2023/06/04 08:48:51;;;;;;;;;;;18.90;99.90;;;;;;5044527;28;20000;-69
2023/06/04 08:51:19;;;;;;;;;;;19.00;99.90;;;;;;5045137;28;19929;-71
2023/06/04 08:53:49;;;;;;;;;;;19.00;99.90;;;;;;5057924;28;19920;-71
2023/06/04 08:56:17;;;;;;;;;;;19.00;99.90;;;;;;5044841;28;19921;-72
2023/06/04 08:58:44;;;;;;;;;;;19.00;99.90;;;;;;5045206;28;19921;-71
2023/06/04 09:01:11;;;;;;;;;;;19.10;99.90;;;;;;5045109;28;19988;-71
2023/06/04 09:03:39;;;;;;;;;;;19.20;99.90;;;;;;5042131;28;19967;-71
2023/06/04 09:06:06;;;;;;;;;;;19.20;99.90;;;;;;5044226;28;19920;-71
2023/06/04 09:08:36;;;;;;;;;;;19.20;99.90;;;;;;5045454;28;19921;-71
2023/06/04 09:11:06;;;;;;;;;;;19.30;99.90;;;;;;5046093;28;19921;-71
2023/06/04 09:13:33;;;;;;;;;;;19.40;99.70;;;;;;5044544;28;20255;-71
2023/06/04 09:16:00;;;;;;;;;;;19.40;99.20;;;;;;5043788;28;19927;-71
2023/06/04 09:18:27;;;;;;;;;;;19.40;99.90;;;;;;5044974;28;19921;-71
2023/06/04 09:21:01;;;;;;;;;;;19.50;99.90;;;;;;5044897;28;20111;-71
2023/06/04 09:23:27;;;;;;;;;;;19.50;99.70;;;;;;5044769;28;19928;-72
2023/06/04 09:25:55;;;;;;;;;;;19.60;99.30;;;;;;5043595;28;19984;-71
2023/06/04 09:28:22;;;;;;;;;;;19.70;99.70;;;;;;5043925;28;20365;-70
2023/06/04 09:30:52;;;;;;;;;;;19.70;99.90;;;;;;5043919;28;20246;-71
2023/06/04 09:33:19;;;;;;;;;;;19.80;98.40;;;;;;5037721;28;19921;-71
2023/06/04 09:35:53;;;;;;;;;;;19.90;99.60;;;;;;5043325;28;20223;-69
2023/06/04 09:38:20;;;;;;;;;;;19.90;99.00;;;;;;5044322;28;19984;-70
2023/06/04 09:40:47;;;;;;;;;;;20.10;99.10;;;;;;5043982;28;19921;-70
2023/06/04 09:43:23;;;;;;;;;;;20.10;99.00;;;;;;5043859;28;19952;-70
2023/06/04 09:45:50;;;;;;;;;;;20.20;99.30;;;;;;5042624;28;19928;-69
2023/06/04 09:48:20;;;;;;;;;;;20.30;98.20;;;;;;5044211;28;19927;-70
2023/06/04 09:50:46;;;;;;;;;;;20.30;98.00;;;;;;5044161;28;19921;-71
2023/06/04 09:53:14;;;;;;;;;;;20.40;98.10;;;;;;5052434;28;19921;-71
2023/06/04 09:55:40;;;;;;;;;;;20.40;96.80;;;;;;5043647;28;19959;-71
2023/06/04 09:58:08;;;;;;;;;;;20.50;97.70;;;;;;5044002;28;19921;-71
2023/06/04 10:00:36;;;;;;;;;;;20.60;98.00;;;;;;5044037;28;19927;-70
2023/06/04 10:03:05;;;;;;;;;;;20.70;96.20;;;;;;5040535;28;19921;-71
2023/06/04 10:05:34;;;;;;;;;;;20.70;96.70;;;;;;5042447;28;20934;-71
2023/06/04 10:08:03;;;;;;;;;;;20.80;98.20;;;;;;5044004;28;19921;-70
2023/06/04 10:10:30;;;;;;;;;;;21.00;97.10;;;;;;5043670;28;20231;-71
2023/06/04 10:13:01;;;;;;;;;;;21.10;97.00;;;;;;5044392;28;20283;-71
2023/06/04 10:15:28;;;;;;;;;;;21.20;96.10;;;;;;5043089;28;19936;-73
2023/06/04 10:17:56;;;;;;;;;;;21.30;96.20;;;;;;5044018;28;19921;-72
2023/06/04 10:20:24;;;;;;;;;;;21.30;96.40;;;;;;5043703;28;20256;-72
2023/06/04 10:22:51;;;;;;;;;;;21.40;95.20;;;;;;5043432;28;19929;-72
2023/06/04 10:25:18;;;;;;;;;;;21.50;96.00;;;;;;5043217;28;19952;-71
2023/06/04 10:27:44;;;;;;;;;;;21.60;96.80;;;;;;5043601;28;19928;-72
2023/06/04 10:30:12;;;;;;;;;;;21.80;94.00;;;;;;5022091;28;19990;-72
2023/06/04 10:32:39;;;;;;;;;;;21.80;94.40;;;;;;5043659;28;19927;-73
2023/06/04 10:35:07;;;;;;;;;;;21.70;94.90;;;;;;5043170;28;20220;-72
2023/06/04 10:37:34;;;;;;;;;;;21.90;94.80;;;;;;5045272;28;19983;-71
2023/06/04 10:40:01;;;;;;;;;;;22.00;93.80;;;;;;5042489;28;20244;-71
2023/06/04 10:42:37;;;;;;;;;;;22.10;94.20;;;;;;5043258;28;20227;-72
2023/06/04 10:45:05;;;;;;;;;;;22.20;94.30;;;;;;5040543;28;19943;-73
2023/06/04 10:47:36;;;;;;;;;;;22.20;93.80;;;;;;5039732;28;20156;-72
2023/06/04 10:50:10;;;;;;;;;;;22.30;93.40;;;;;;5043313;28;20216;-72
2023/06/04 10:52:37;;;;;;;;;;;22.40;94.30;;;;;;5049619;28;19920;-73
2023/06/04 10:55:04;;;;;;;;;;;22.50;94.30;;;;;;5045319;28;19922;-73
2023/06/04 10:57:31;;;;;;;;;;;22.70;93.70;;;;;;5055078;28;19956;-72
2023/06/04 10:59:59;;;;;;;;;;;22.90;92.60;;;;;;5038991;28;19928;-72
2023/06/04 11:02:26;;;;;;;;;;;22.90;92.80;;;;;;5039550;28;19921;-73
2023/06/04 11:05:03;;;;;;;;;;;23.00;91.50;;;;;;5036724;28;19927;-73
2023/06/04 11:07:43;;;;;;;;;;;23.20;91.20;;;;;;5040017;28;20001;-72
2023/06/04 11:10:10;;;;;;;;;;;23.30;91.40;;;;;;5043072;28;19925;-72
2023/06/04 11:12:42;;;;;;;;;;;23.50;91.50;;;;;;5043219;28;19993;-71
2023/06/04 11:15:09;;;;;;;;;;;23.70;90.80;;;;;;5042507;28;19927;-72
2023/06/04 11:17:36;;;;;;;;;;;23.70;90.60;;;;;;5042520;28;20252;-73
2023/06/04 11:20:06;;;;;;;;;;;23.60;90.10;;;;;;5042644;28;19967;-71
2023/06/04 11:22:33;;;;;;;;;;;23.60;91.10;;;;;;5043247;28;19921;-70
2023/06/04 11:25:01;;;;;;;;;;;23.70;91.10;;;;;;5037962;28;19990;-71
2023/06/04 11:27:27;;;;;;;;;;;23.80;90.10;;;;;;5025565;28;19952;-71
2023/06/04 11:29:54;;;;;;;;;;;23.90;87.60;;;;;;5033423;28;19927;-73
2023/06/04 11:32:24;;;;;;;;;;;24.00;86.60;;;;;;5039851;28;19992;-71
2023/06/04 11:34:50;;;;;;;;;;;24.10;86.30;;;;;;5041647;28;19929;-70
2023/06/04 11:37:17;;;;;;;;;;;24.10;87.30;;;;;;5033098;28;19988;-70
2023/06/04 11:39:44;;;;;;;;;;;24.30;89.20;;;;;;5039132;28;19984;-69
2023/06/04 11:42:13;;;;;;;;;;;24.40;85.10;;;;;;5029323;28;20001;-70
2023/06/04 11:44:44;;;;;;;;;;;24.60;85.80;;;;;;5033283;28;19945;-73
2023/06/04 11:47:12;;;;;;;;;;;24.70;85.40;;;;;;5042207;28;19928;-69
2023/06/04 11:49:39;;;;;;;;;;;24.90;85.70;;;;;;5042715;28;19989;-72
2023/06/04 11:52:06;;;;;;;;;;;25.00;79.80;;;;;;5044813;28;20104;-71
2023/06/04 11:54:38;;;;;;;;;;;25.10;80.30;;;;;;5037120;28;19921;-69
2023/06/04 11:57:06;;;;;;;;;;;25.10;77.90;;;;;;5039030;28;19960;-70
2023/06/04 11:59:35;;;;;;;;;;;24.90;77.40;;;;;;5042043;28;19921;-71
2023/06/04 12:02:01;;;;;;;;;;;24.80;75.80;;;;;;5042041;28;19984;-71
2023/06/04 12:04:30;;;;;;;;;;;24.80;76.70;;;;;;5042711;28;20435;-71
2023/06/04 12:06:58;;;;;;;;;;;24.90;72.60;;;;;;5041154;28;19921;-71
2023/06/04 12:09:27;;;;;;;;;;;24.90;73.70;;;;;;5045774;28;19937;-70
2023/06/04 12:11:58;;;;;;;;;;;24.90;74.80;;;;;;5034298;28;19925;-72
2023/06/04 12:14:25;;;;;;;;;;;25.00;71.30;;;;;;5041607;28;19921;-69
2023/06/04 12:16:59;;;;;;;;;;;25.20;72.80;;;;;;5045578;28;19991;-70
2023/06/04 12:19:26;;;;;;;;;;;25.40;74.90;;;;;;5039265;28;20108;-70
2023/06/04 12:22:00;;;;;;;;;;;25.30;73.40;;;;;;5045937;28;19928;-69
2023/06/04 12:24:27;;;;;;;;;;;25.40;77.70;;;;;;5045250;28;19929;-71
2023/06/04 12:27:02;;;;;;;;;;;25.40;75.10;;;;;;5041286;28;19999;-72
2023/06/04 12:29:29;;;;;;;;;;;25.30;77.00;;;;;;5025984;28;20168;-70
2023/06/04 12:32:03;;;;;;;;;;;25.30;78.10;;;;;;5038526;28;20213;-70
2023/06/04 12:34:30;;;;;;;;;;;25.40;74.90;;;;;;5044976;28;19921;-71
2023/06/04 12:36:57;;;;;;;;;;;25.50;78.40;;;;;;5031822;28;19992;-70
2023/06/04 12:39:23;;;;;;;;;;;25.70;77.20;;;;;;5046665;28;19928;-70
2023/06/04 12:41:50;;;;;;;;;;;25.90;75.30;;;;;;5062178;28;19952;-73
2023/06/04 12:44:16;;;;;;;;;;;26.10;74.60;;;;;;5064703;28;20223;-72
2023/06/04 12:46:43;;;;;;;;;;;26.20;70.90;;;;;;5042213;28;19991;-72
2023/06/04 12:49:12;;;;;;;;;;;26.10;68.60;;;;;;5045233;28;19984;-72
2023/06/04 12:51:38;;;;;;;;;;;26.10;70.50;;;;;;5045132;28;19921;-72
2023/06/04 12:54:05;;;;;;;;;;;26.20;70.50;;;;;;5033326;28;19989;-72
2023/06/04 12:56:31;;;;;;;;;;;26.40;69.30;;;;;;5025321;28;19988;-73
2023/06/04 12:58:58;;;;;;;;;;;26.50;70.90;;;;;;5025472;28;19988;-71
2023/06/04 13:01:25;;;;;;;;;;;26.70;69.30;;;;;;5030339;28;19956;-72
2023/06/04 13:03:51;;;;;;;;;;;26.80;66.40;;;;;;5043879;28;20226;-71
2023/06/04 13:06:20;;;;;;;;;;;26.70;68.70;;;;;;5044595;28;19959;-73
2023/06/04 13:08:47;;;;;;;;;;;26.90;70.80;;;;;;5044688;28;19944;-72
2023/06/04 13:11:13;;;;;;;;;;;26.80;70.10;;;;;;5044982;28;19984;-72
2023/06/04 13:13:40;;;;;;;;;;;26.80;70.00;;;;;;5045018;28;19988;-72
2023/06/04 13:16:07;;;;;;;;;;;26.70;67.10;;;;;;5032107;28;19921;-73
2023/06/04 13:18:33;;;;;;;;;;;26.60;66.20;;;;;;5044877;28;19928;-71
2023/06/04 13:21:03;;;;;;;;;;;26.60;69.00;;;;;;5045273;28;20004;-71
2023/06/04 13:23:31;;;;;;;;;;;26.90;70.20;;;;;;5044510;28;19955;-73
2023/06/04 13:26:00;;;;;;;;;;;27.30;69.70;;;;;;5040244;28;19921;-71
2023/06/04 13:28:28;;;;;;;;;;;27.30;65.30;;;;;;5025474;28;19929;-71
2023/06/04 13:30:55;;;;;;;;;;;27.50;65.50;;;;;;5041549;28;19922;-71
2023/06/04 13:33:21;;;;;;;;;;;27.60;64.50;;;;;;5043990;28;20255;-71
2023/06/04 13:35:50;;;;;;;;;;;27.50;66.30;;;;;;5043918;28;19928;-71
2023/06/04 13:38:19;;;;;;;;;;;27.50;67.10;;;;;;5047508;28;19925;-71
2023/06/04 13:40:47;;;;;;;;;;;27.60;66.70;;;;;;5053800;28;19921;-71
2023/06/04 13:43:15;;;;;;;;;;;27.30;67.00;;;;;;5036065;28;19928;-71
2023/06/04 13:45:44;;;;;;;;;;;27.10;67.20;;;;;;5033590;28;19922;-71
2023/06/04 13:48:10;;;;;;;;;;;26.90;67.10;;;;;;5043738;28;20142;-71
2023/06/04 13:50:37;;;;;;;;;;;27.00;68.20;;;;;;5044204;28;19983;-71
2023/06/04 13:53:04;;;;;;;;;;;27.10;68.00;;;;;;5039170;28;20216;-73
2023/06/04 13:55:30;;;;;;;;;;;27.40;66.00;;;;;;5023806;28;19943;-72
2023/06/04 13:57:58;;;;;;;;;;;27.70;65.80;;;;;;5024715;28;20167;-72
2023/06/04 14:00:25;;;;;;;;;;;28.00;64.70;;;;;;5024337;28;19927;-71
2023/06/04 14:02:52;;;;;;;;;;;28.10;65.30;;;;;;5032288;28;19921;-71
2023/06/04 14:05:18;;;;;;;;;;;28.00;65.80;;;;;;5043360;28;19984;-71
2023/06/04 14:07:45;;;;;;;;;;;28.10;63.20;;;;;;5043775;28;20264;-71
2023/06/04 14:10:12;;;;;;;;;;;28.00;64.30;;;;;;5032701;28;19957;-71
2023/06/04 14:12:39;;;;;;;;;;;28.00;63.70;;;;;;5023989;28;19922;-72
2023/06/04 14:15:08;;;;;;;;;;;27.90;63.90;;;;;;5023168;28;19926;-71
2023/06/04 14:17:34;;;;;;;;;;;28.00;63.90;;;;;;5038248;28;19921;-71